Time;durP1;ratioP1;P1;durP2;ratioP2;P2;SDS_P1;SDS_P2;PMS_P1;PMS_P2;Temp;Humidity;BMP_temperature;BMP_pressure;BME280_temperature;BME280_humidity;BME280_pressure;Samples;Min_cycle;Max_cycle;Signal;HPM_P1;HPM_P2
2022/09/22 00:01:39;;;;;;;4.30;2.17;;;;;;;8.94;54.95;93311.59;2071236;69;20216;-75
2022/09/22 00:04:11;;;;;;;4.20;2.47;;;;;;;9.00;54.42;93316.94;2067632;69;20605;-74
2022/09/22 00:06:50;;;;;;;3.38;2.20;;;;;;;8.94;54.49;93317.22;2071230;69;20223;-73
2022/09/22 00:09:18;;;;;;;2.38;1.95;;;;;;;8.84;55.88;93314.38;2071246;69;20145;-73
2022/09/22 00:11:47;;;;;;;4.43;2.17;;;;;;;8.79;55.53;93318.19;2067941;69;20549;-73
2022/09/22 00:14:16;;;;;;;3.25;2.13;;;;;;;8.86;55.35;93319.41;2071070;69;20199;-75
2022/09/22 00:16:45;;;;;;;3.72;2.30;;;;;;;8.79;55.54;93320.25;2071169;69;20184;-75
2022/09/22 00:19:32;;;;;;;5.82;2.20;;;;;;;8.56;56.94;93326.94;2071049;69;20615;-74
2022/09/22 00:21:58;;;;;;;4.90;1.90;;;;;;;8.62;56.28;93319.00;2070976;69;20224;-74
2022/09/22 00:24:25;;;;;;;5.63;2.13;;;;;;;8.60;56.37;93324.44;2067974;69;20137;-74
2022/09/22 00:26:56;;;;;;;4.25;2.08;;;;;;;8.54;56.48;93326.78;2071130;69;20147;-74
2022/09/22 00:29:28;;;;;;;3.85;2.40;;;;;;;8.45;56.92;93329.56;2067876;69;20170;-74
2022/09/22 00:31:55;;;;;;;3.53;2.10;;;;;;;8.54;55.60;93326.78;2067792;69;20148;-74
2022/09/22 00:34:23;;;;;;;4.40;2.53;;;;;;;8.57;55.74;93316.47;2071196;69;20148;-74
2022/09/22 00:36:49;;;;;;;4.00;2.10;;;;;;;8.45;56.44;93309.91;2071027;69;20202;-74
2022/09/22 00:39:16;;;;;;;4.25;1.98;;;;;;;8.40;56.33;93325.69;2071200;69;20137;-75
2022/09/22 00:41:46;;;;;;;3.67;2.20;;;;;;;8.30;56.88;93322.06;2070893;69;20604;-73
2022/09/22 00:44:15;;;;;;;2.83;2.33;;;;;;;8.34;56.29;93303.47;2067922;69;20147;-74
2022/09/22 00:46:43;;;;;;;2.90;1.83;;;;;;;8.34;56.23;93302.75;2071324;69;20259;-74
2022/09/22 00:49:11;;;;;;;6.25;2.25;;;;;;;8.25;57.27;93303.44;2071386;69;20160;-74
2022/09/22 00:51:40;;;;;;;3.17;1.92;;;;;;;8.24;57.38;93297.06;2070718;69;20272;-74
2022/09/22 00:54:13;;;;;;;5.97;2.25;;;;;;;7.72;59.73;93297.16;2067820;69;20152;-74
2022/09/22 00:56:52;;;;;;;5.38;2.40;;;;;;;7.80;59.92;93294.28;2067998;69;20176;-74
2022/09/22 00:59:20;;;;;;;5.18;2.10;;;;;;;8.03;58.33;93308.00;2066775;69;20187;-74
2022/09/22 01:01:47;;;;;;;5.95;2.20;;;;;;;8.08;56.94;93302.13;2067816;69;20152;-74
2022/09/22 01:04:15;;;;;;;4.88;2.50;;;;;;;8.18;56.70;93307.81;2069027;69;20245;-74
2022/09/22 01:06:40;;;;;;;4.35;2.30;;;;;;;8.17;56.66;93308.41;2067792;69;20155;-73
2022/09/22 01:09:08;;;;;;;4.60;2.38;;;;;;;8.06;57.72;93293.56;2067656;69;20141;-74
2022/09/22 01:11:36;;;;;;;4.38;2.28;;;;;;;8.02;58.28;93303.72;2068315;69;20235;-75
2022/09/22 01:14:35;;;;;;;3.28;2.20;;;;;;;8.07;57.41;93294.31;2070713;69;20176;-74
2022/09/22 01:17:20;;;;;;;5.70;2.30;;;;;;;7.86;58.17;93300.34;2071059;69;20218;-76
2022/09/22 01:20:27;;;;;;;6.07;2.00;;;;;;;7.96;57.42;93292.75;2071318;69;20148;-74
2022/09/22 01:22:59;;;;;;;3.25;2.08;;;;;;;8.03;57.30;93291.94;2071157;69;20132;-74
2022/09/22 01:25:54;;;;;;;3.22;2.25;;;;;;;7.92;58.20;93286.81;2071164;69;20148;-74
2022/09/22 01:28:31;;;;;;;5.88;2.08;;;;;;;7.89;57.89;93288.72;2055927;69;20130;-74
2022/09/22 01:31:18;;;;;;;3.45;2.13;;;;;;;7.82;58.26;93289.56;2070935;69;20193;-74
2022/09/22 01:33:50;;;;;;;4.32;1.98;;;;;;;7.73;58.12;93279.00;2067528;69;20608;-75
2022/09/22 01:36:30;;;;;;;6.85;2.22;;;;;;;7.81;57.55;93271.25;2070805;69;20183;-75
2022/09/22 01:39:19;;;;;;;4.60;2.20;;;;;;;7.88;57.35;93276.03;2070949;69;20140;-74
2022/09/22 01:41:45;;;;;;;3.15;2.20;;;;;;;7.67;58.99;93269.38;2067620;69;20679;-74
2022/09/22 01:44:24;;;;;;;3.95;2.17;;;;;;;7.62;58.96;93276.72;2070668;69;20243;-74
2022/09/22 01:46:56;;;;;;;3.60;2.40;;;;;;;7.64;59.25;93262.88;2070847;69;20263;-73
2022/09/22 01:49:25;;;;;;;6.75;2.13;;;;;;;7.73;58.42;93265.00;2070641;69;20602;-74
2022/09/22 01:52:08;;;;;;;6.65;2.20;;;;;;;6.95;61.95;93266.41;2071004;69;20140;-74
2022/09/22 01:54:44;;;;;;;5.68;1.98;;;;;;;7.47;59.31;93252.44;2067243;69;20151;-73
2022/09/22 01:57:36;;;;;;;4.25;2.28;;;;;;;7.50;58.50;93256.88;2070872;69;20167;-74
2022/09/22 02:00:06;;;;;;;5.05;2.50;;;;;;;7.52;58.22;93253.50;2067495;69;20196;-75
2022/09/22 02:03:00;;;;;;;5.63;1.95;;;;;;;7.66;58.19;93249.03;2070891;69;20195;-74
2022/09/22 02:05:33;;;;;;;4.45;2.28;;;;;;;7.69;57.22;93252.72;2070582;69;20257;-75
2022/09/22 02:08:05;;;;;;;4.40;2.08;;;;;;;7.87;56.11;93260.53;2067263;69;20488;-75
2022/09/22 02:10:35;;;;;;;2.92;2.20;;;;;;;7.84;56.20;93250.50;2071003;69;20171;-75
2022/09/22 02:13:01;;;;;;;3.00;2.17;;;;;;;7.72;57.34;93243.91;2070978;69;20161;-74
2022/09/22 02:18:19;;;;;;;4.07;2.30;;;;;;;7.79;55.92;93242.31;2070863;69;20176;-75
2022/09/22 02:20:44;;;;;;;;;;;;;;;7.48;58.28;93241.97;2067627;69;20520;-74
2022/09/22 02:23:10;;;;;;;6.18;2.25;;;;;;;7.53;58.59;93243.78;2070934;69;20437;-74
2022/09/22 02:25:37;;;;;;;3.60;2.10;;;;;;;7.29;59.49;93245.34;2070222;69;20160;-75
2022/09/22 02:28:06;;;;;;;4.78;2.15;;;;;;;7.37;59.04;93243.94;2070814;69;20229;-74
2022/09/22 02:30:32;;;;;;;4.13;1.90;;;;;;;7.56;56.79;93240.56;2070786;69;20136;-75
2022/09/22 02:32:59;;;;;;;2.95;1.95;;;;;;;7.51;57.42;93238.00;2070782;69;20168;-74
2022/09/22 02:35:29;;;;;;;3.15;1.80;;;;;;;7.47;57.69;93227.22;2067118;69;20198;-74
2022/09/22 02:38:06;;;;;;;4.07;2.10;;;;;;;7.46;58.10;93231.31;2070792;69;20171;-74
2022/09/22 02:40:43;;;;;;;3.33;1.85;;;;;;;7.38;58.69;93220.22;2070905;69;20184;-74
2022/09/22 02:43:27;;;;;;;4.00;1.80;;;;;;;7.41;57.97;93226.72;2067689;69;20148;-75
2022/09/22 02:46:03;;;;;;;3.53;1.90;;;;;;;7.34;58.59;93214.28;2071103;69;20204;-75
2022/09/22 02:48:34;;;;;;;3.35;1.95;;;;;;;7.41;57.63;93207.09;2070705;69;20179;-75
2022/09/22 02:51:00;;;;;;;3.77;2.23;;;;;;;7.31;58.00;93214.69;2070816;69;20152;-75
2022/09/22 02:53:26;;;;;;;6.00;2.20;;;;;;;7.36;57.30;93208.84;2070843;69;20145;-75
2022/09/22 02:55:51;;;;;;;3.38;2.20;;;;;;;7.37;57.73;93217.97;2070657;69;20240;-76
2022/09/22 02:58:17;;;;;;;4.35;2.20;;;;;;;7.26;58.43;93219.22;2070672;69;20244;-75
2022/09/22 03:00:44;;;;;;;6.28;2.80;;;;;;;6.57;63.27;93225.50;2070618;69;20182;-77
2022/09/22 03:03:10;;;;;;;3.95;2.05;;;;;;;7.02;60.03;93229.19;2070664;69;20228;-76
2022/09/22 03:05:39;;;;;;;9.10;2.58;;;;;;;7.12;58.71;93232.09;2067413;69;20485;-76
2022/09/22 03:08:05;;;;;;;6.03;2.47;;;;;;;7.22;57.75;93232.91;2071083;69;20182;-76
2022/09/22 03:10:31;;;;;;;4.80;2.28;;;;;;;7.12;58.78;93232.09;2070800;69;20534;-75
2022/09/22 03:12:57;;;;;;;5.82;2.30;;;;;;;7.08;59.94;93226.16;2070889;69;20168;-75
2022/09/22 03:15:23;;;;;;;4.75;2.38;;;;;;;7.13;58.83;93225.91;2071141;69;20152;-74
2022/09/22 03:17:48;;;;;;;4.30;2.67;;;;;;;6.88;60.46;93220.38;2070974;69;20224;-76
2022/09/22 03:20:14;;;;;;;4.20;2.30;;;;;;;7.03;58.91;93227.13;2071368;69;20136;-75
2022/09/22 03:22:40;;;;;;;2.95;2.10;;;;;;;7.00;59.83;93223.41;2071416;69;20611;-74
2022/09/22 03:25:10;;;;;;;4.25;2.30;;;;;;;6.99;58.49;93224.00;2070900;69;20184;-75
2022/09/22 03:27:37;;;;;;;6.00;2.42;;;;;;;6.96;58.80;93223.09;2071253;69;20175;-74
2022/09/22 03:30:07;;;;;;;4.72;2.10;;;;;;;6.89;59.05;93229.50;2071334;69;20144;-74
2022/09/22 03:32:33;;;;;;;4.32;2.47;;;;;;;6.94;59.39;93225.72;2071346;69;20227;-76
2022/09/22 03:34:59;;;;;;;6.18;2.63;;;;;;;6.83;60.53;93226.97;2071337;69;20222;-74
2022/09/22 03:37:25;;;;;;;5.78;2.50;;;;;;;6.81;59.68;93221.19;2071449;69;20556;-75
2022/09/22 03:39:51;;;;;;;3.33;2.15;;;;;;;6.78;60.05;93227.19;2071487;69;20166;-75
2022/09/22 03:42:16;;;;;;;7.00;3.90;;;;;;;6.77;60.35;93217.31;2071165;69;20141;-75
2022/09/22 03:44:42;;;;;;;4.65;2.50;;;;;;;6.85;58.28;93226.38;2071262;69;20589;-75
2022/09/22 03:47:08;;;;;;;6.53;4.35;;;;;;;6.91;58.53;93221.28;2071340;69;20243;-76
2022/09/22 03:49:34;;;;;;;11.23;6.20;;;;;;;6.81;59.54;93226.78;2067844;69;20338;-75
2022/09/22 03:52:00;;;;;;;14.32;9.88;;;;;;;6.71;60.04;93228.75;2071140;69;20465;-75
2022/09/22 03:54:26;;;;;;;19.13;13.40;;;;;;;6.66;60.34;93229.72;2067902;69;20140;-75
2022/09/22 03:56:51;;;;;;;15.00;11.07;;;;;;;6.70;59.43;93224.47;2070510;69;20163;-74
2022/09/22 03:59:17;;;;;;;17.08;12.32;;;;;;;6.71;59.88;93225.19;2071350;69;20271;-74
2022/09/22 04:01:42;;;;;;;18.38;12.30;;;;;;;6.70;59.95;93218.88;2067810;69;20683;-75
2022/09/22 04:04:08;;;;;;;16.73;11.55;;;;;;;6.68;60.02;93223.53;2071168;69;20164;-76
2022/09/22 04:06:35;;;;;;;13.60;9.45;;;;;;;6.68;59.92;93231.94;2071121;69;20149;-76
2022/09/22 04:09:01;;;;;;;9.52;5.72;;;;;;;6.66;60.03;93232.53;2070615;69;20674;-75
2022/09/22 04:11:27;;;;;;;11.27;7.18;;;;;;;6.71;58.85;93228.75;2071192;69;20151;-75
2022/09/22 04:13:53;;;;;;;8.07;5.35;;;;;;;6.67;59.42;93234.00;2071366;69;20147;-76
2022/09/22 04:16:19;;;;;;;9.25;6.85;;;;;;;6.48;61.86;93228.19;2071465;69;20152;-75
2022/09/22 04:18:45;;;;;;;12.43;7.07;;;;;;;6.51;60.35;93233.41;2071284;69;20140;-76
2022/09/22 04:21:10;;;;;;;16.38;7.43;;;;;;;6.66;59.46;93229.72;2071392;69;20587;-76
2022/09/22 04:23:37;;;;;;;10.85;8.20;;;;;;;6.69;58.83;93231.38;2071417;69;20473;-75
2022/09/22 04:26:03;;;;;;;6.57;4.88;;;;;;;6.63;59.69;93225.25;2068089;69;20591;-76
2022/09/22 04:28:30;;;;;;;10.60;5.78;;;;;;;6.66;59.66;93231.78;2071423;69;20155;-76
2022/09/22 04:30:56;;;;;;;7.05;2.88;;;;;;;6.00;64.71;93231.91;2071599;69;20164;-74
2022/09/22 04:33:22;;;;;;;5.57;2.88;;;;;;;6.47;61.15;93229.53;2071140;69;20151;-76
2022/09/22 04:35:50;;;;;;;4.85;2.92;;;;;;;6.50;60.37;93223.50;2071355;69;20184;-75
2022/09/22 04:38:17;;;;;;;4.72;3.30;;;;;;;6.59;60.00;93230.53;2068108;69;20199;-76
2022/09/22 04:40:44;;;;;;;6.13;3.10;;;;;;;6.53;59.78;93235.63;2071281;69;20174;-76
2022/09/22 04:43:11;;;;;;;11.27;3.55;;;;;;;6.51;60.32;93233.41;2071298;69;20152;-74
2022/09/22 04:45:43;;;;;;;5.30;2.83;;;;;;;6.54;59.66;93231.50;2071325;69;20140;-74
2022/09/22 04:48:09;;;;;;;8.95;2.90;;;;;;;6.41;60.44;93246.50;2071446;69;20487;-76
2022/09/22 04:50:34;;;;;;;5.65;3.72;;;;;;;6.42;60.59;93242.41;2067948;69;20147;-76
2022/09/22 04:53:05;;;;;;;5.40;3.88;;;;;;;6.40;60.63;93249.88;2071223;69;20239;-76
2022/09/22 04:55:32;;;;;;;4.40;2.47;;;;;;;6.52;59.40;93250.91;2071208;69;20235;-76
2022/09/22 04:57:58;;;;;;;23.00;15.45;;;;;;;6.35;60.98;93251.59;2071368;69;20163;-76
2022/09/22 05:00:26;;;;;;;7.97;5.47;;;;;;;6.38;60.19;93253.25;2071437;69;20568;-75
2022/09/22 05:02:52;;;;;;;11.13;7.85;;;;;;;6.32;60.41;93255.53;2068012;69;20228;-74
2022/09/22 05:05:18;;;;;;;9.95;4.75;;;;;;;6.41;59.70;93260.50;2070997;69;20148;-74
2022/09/22 05:07:46;;;;;;;5.80;3.90;;;;;;;6.37;60.44;93254.56;2071207;69;20238;-74
2022/09/22 05:10:13;;;;;;;6.63;3.15;;;;;;;6.32;60.42;93261.88;2071224;69;20148;-75
2022/09/22 05:12:40;;;;;;;7.32;4.20;;;;;;;6.32;60.17;93261.88;2071312;69;20168;-75
2022/09/22 05:15:07;;;;;;;8.98;4.43;;;;;;;6.51;58.61;93258.56;2067874;69;20568;-76
2022/09/22 05:17:35;;;;;;;9.63;4.13;;;;;;;6.36;59.40;93259.41;2071217;69;20148;-76
2022/09/22 05:20:04;;;;;;;4.47;2.88;;;;;;;6.16;61.12;93251.38;2071324;69;20159;-75
2022/09/22 05:22:30;;;;;;;3.45;2.50;;;;;;;6.16;61.61;93254.91;2068005;69;20245;-76
2022/09/22 05:24:56;;;;;;;6.80;3.13;;;;;;;6.22;61.01;93257.47;2067796;69;20651;-76
2022/09/22 05:27:22;;;;;;;4.68;3.28;;;;;;;6.20;60.37;93260.09;2071175;69;20220;-75
2022/09/22 05:29:47;;;;;;;7.80;3.92;;;;;;;6.23;59.81;93261.72;2071355;69;20178;-76
2022/09/22 05:32:14;;;;;;;6.13;4.50;;;;;;;6.37;60.21;93262.97;2071412;69;20212;-76
2022/09/22 05:34:40;;;;;;;9.23;4.55;;;;;;;6.33;59.93;93268.97;2071067;69;20496;-76
2022/09/22 05:37:06;;;;;;;11.02;5.00;;;;;;;6.02;62.36;93271.19;2071072;69;20144;-73
2022/09/22 05:39:31;;;;;;;9.93;4.88;;;;;;;6.17;61.67;93275.94;2071322;69;20148;-73
2022/09/22 05:41:57;;;;;;;8.07;4.63;;;;;;;6.11;61.83;93281.03;2071251;69;20148;-74
2022/09/22 05:44:23;;;;;;;8.00;3.67;;;;;;;5.59;64.73;93280.69;2071451;69;20152;-74
2022/09/22 05:46:49;;;;;;;8.65;3.40;;;;;;;5.97;62.45;93274.94;2071170;69;20176;-73
2022/09/22 05:49:14;;;;;;;7.75;3.28;;;;;;;6.02;62.12;93278.84;2071352;69;20155;-75
2022/09/22 05:51:40;;;;;;;5.65;3.35;;;;;;;5.96;63.15;93281.13;2071166;69;20151;-74
2022/09/22 05:54:06;;;;;;;12.10;3.60;;;;;;;5.97;62.76;93277.75;2071333;69;20301;-75
2022/09/22 05:56:32;;;;;;;6.03;3.22;;;;;;;5.96;62.74;93276.25;2071321;69;20140;-75
2022/09/22 05:58:58;;;;;;;11.38;3.47;;;;;;;6.05;61.93;93280.50;2070949;69;20184;-76
2022/09/22 06:01:23;;;;;;;7.88;3.63;;;;;;;6.02;62.28;93273.25;2071277;69;20162;-75
2022/09/22 06:03:49;;;;;;;9.02;4.53;;;;;;;6.12;62.06;93282.50;2067764;69;20143;-75
2022/09/22 06:06:14;;;;;;;8.70;4.68;;;;;;;6.12;61.32;93279.69;2071243;69;20619;-75
2022/09/22 06:08:41;;;;;;;15.18;9.00;;;;;;;6.12;62.62;93279.69;2071322;69;20259;-75
2022/09/22 06:11:06;;;;;;;24.52;11.38;;;;;;;6.11;61.96;93278.97;2070841;69;20199;-75
2022/09/22 06:13:32;;;;;;;17.70;10.90;;;;;;;6.12;62.70;93268.53;2071252;69;20148;-75
2022/09/22 06:16:02;;;;;;;12.05;7.60;;;;;;;6.16;62.63;93273.72;2071430;69;20155;-75
2022/09/22 06:18:29;;;;;;;12.02;7.65;;;;;;;6.16;62.00;93276.53;2071177;69;20147;-75
2022/09/22 06:20:55;;;;;;;19.15;12.20;;;;;;;6.25;61.79;93273.84;2071055;69;20159;-76
2022/09/22 06:23:21;;;;;;;22.80;13.55;;;;;;;6.23;61.86;93273.69;2071300;69;20144;-75
2022/09/22 06:25:47;;;;;;;9.88;6.18;;;;;;;6.26;61.40;93274.59;2071273;69;20172;-77
2022/09/22 06:28:13;;;;;;;19.08;12.77;;;;;;;6.42;61.78;93278.78;2071332;69;20171;-76
2022/09/22 06:30:39;;;;;;;19.15;10.82;;;;;;;6.68;62.50;93274.66;2071075;69;20622;-75
2022/09/22 06:33:05;;;;;;;9.85;7.60;;;;;;;6.72;62.93;93280.59;2071292;69;20243;-76
2022/09/22 06:35:36;;;;;;;13.23;8.23;;;;;;;6.77;62.03;93271.22;2071039;69;20239;-74
2022/09/22 06:38:05;;;;;;;13.88;8.45;;;;;;;6.88;61.46;93270.03;2071153;69;20507;-76
2022/09/22 06:40:31;;;;;;;13.40;8.23;;;;;;;6.76;61.57;93269.72;2071004;69;20552;-75
2022/09/22 06:43:00;;;;;;;10.63;6.50;;;;;;;6.68;61.59;93266.25;2070937;69;20518;-76
2022/09/22 06:45:28;;;;;;;10.90;7.57;;;;;;;6.49;61.96;93266.03;2069831;69;20212;-75
2022/09/22 06:47:58;;;;;;;14.77;7.30;;;;;;;6.56;61.89;93262.44;2069330;69;20136;-75
2022/09/22 06:50:25;;;;;;;13.02;6.60;;;;;;;6.43;62.48;93265.53;2070841;69;20141;-75
2022/09/22 06:52:56;;;;;;;10.55;6.10;;;;;;;6.43;62.97;93252.28;2071350;69;20712;-76
2022/09/22 06:55:22;;;;;;;9.88;6.32;;;;;;;6.49;62.52;93257.66;2071385;69;20144;-74
2022/09/22 06:57:50;;;;;;;11.45;6.95;;;;;;;6.48;61.81;93251.31;2067951;69;20220;-75
2022/09/22 07:00:16;;;;;;;14.10;7.45;;;;;;;6.45;62.59;93252.44;2071581;69;20180;-76
2022/09/22 07:02:42;;;;;;;14.30;8.00;;;;;;;6.61;61.34;93255.88;2068123;69;20149;-75
2022/09/22 07:05:08;;;;;;;15.02;7.70;;;;;;;6.60;61.55;93255.16;2071361;69;20167;-75
2022/09/22 07:07:33;;;;;;;16.65;10.10;;;;;;;6.61;61.94;93253.09;2071386;69;20148;-76
2022/09/22 07:09:59;;;;;;;22.90;15.70;;;;;;;6.49;61.88;93246.47;2071297;69;20164;-76
2022/09/22 07:12:25;;;;;;;29.25;19.92;;;;;;;6.46;62.34;93251.16;2068057;69;20144;-74
2022/09/22 07:14:55;;;;;;;24.20;16.15;;;;;;;6.71;60.69;93256.00;2071511;69;20156;-74
2022/09/22 07:17:21;;;;;;;23.52;14.90;;;;;;;6.62;61.74;93248.97;2071317;69;20515;-74
2022/09/22 07:19:46;;;;;;;21.80;15.18;;;;;;;6.67;61.78;93239.59;2071558;69;20223;-75
2022/09/22 07:22:14;;;;;;;23.67;15.15;;;;;;;6.96;63.13;93239.13;2071508;69;20148;-77
2022/09/22 07:24:41;;;;;;;13.55;8.27;;;;;;;7.32;62.11;93241.38;2070976;69;20221;-76
2022/09/22 07:27:09;;;;;;;13.32;7.28;;;;;;;7.49;62.16;93240.63;2071428;69;20239;-76
2022/09/22 07:29:36;;;;;;;15.98;8.57;;;;;;;7.76;62.38;93246.28;2068285;69;20231;-74
2022/09/22 07:32:02;;;;;;;12.07;7.20;;;;;;;8.34;60.82;93232.59;2071547;69;20140;-75
2022/09/22 07:34:28;;;;;;;12.75;7.05;;;;;;;8.83;59.66;93231.47;2071415;69;20143;-73
2022/09/22 07:36:54;;;;;;;9.98;6.53;;;;;;;9.25;57.90;93238.78;2071330;69;20136;-73
2022/09/22 07:39:19;;;;;;;13.55;6.60;;;;;;;9.36;58.19;93240.28;2071367;69;20163;-76
2022/09/22 07:41:46;;;;;;;17.98;6.63;;;;;;;9.44;58.54;93232.44;2071423;69;20137;-76
2022/09/22 07:46:59;;;;;;;12.73;5.88;;;;;;;11.03;53.63;93225.97;2071332;69;20580;-74
2022/09/22 07:49:25;;;;;;;11.05;5.80;;;;;;;11.11;53.80;93218.78;2071508;69;20139;-77
2022/09/22 07:51:56;;;;;;;10.55;6.00;;;;;;;12.60;49.38;93219.88;2071470;69;20244;-74
2022/09/22 07:54:26;;;;;;;13.77;6.65;;;;;;;11.52;50.68;93220.75;2071524;69;20121;-75
2022/09/22 07:56:54;;;;;;;12.95;6.50;;;;;;;11.34;51.81;93214.66;2071265;69;20187;-73
2022/09/22 07:59:20;;;;;;;8.35;5.50;;;;;;;12.03;50.50;93219.13;2071335;69;20206;-74
2022/09/22 08:01:48;;;;;;;8.07;5.13;;;;;;;12.45;50.69;93215.41;2071487;69;20647;-76
2022/09/22 08:04:21;;;;;;;8.25;4.93;;;;;;;12.45;48.36;93221.06;2068069;69;20149;-73
2022/09/22 08:06:54;;;;;;;9.50;4.22;;;;;;;12.58;49.56;93216.19;2071541;69;20143;-74
2022/09/22 08:09:20;;;;;;;7.18;4.22;;;;;;;12.83;47.53;93210.69;2071417;69;20180;-74
2022/09/22 08:11:47;;;;;;;6.60;4.18;;;;;;;13.23;46.44;93206.72;2071147;69;20261;-75
2022/09/22 08:14:20;;;;;;;9.63;4.90;;;;;;;13.83;46.62;93210.84;2071619;69;20182;-75
2022/09/22 08:16:45;;;;;;;;;;;;;;;14.27;44.92;93208.34;2071237;69;20223;-74
2022/09/22 08:19:12;;;;;;;7.18;3.47;;;;;;;14.70;43.99;93203.63;2071355;69;20496;-74
2022/09/22 08:21:39;;;;;;;4.90;3.20;;;;;;;14.81;43.43;93199.25;2068085;69;20180;-74
2022/09/22 08:24:07;;;;;;;4.03;2.40;;;;;;;14.76;42.91;93200.41;2071208;69;20148;-74
2022/09/22 08:26:36;;;;;;;3.78;2.30;;;;;;;15.25;42.48;93192.31;2070903;69;20267;-73
2022/09/22 08:29:03;;;;;;;3.10;2.20;;;;;;;15.55;41.95;93186.00;2071064;69;20307;-74
2022/09/22 08:31:30;;;;;;;5.10;2.33;;;;;;;15.95;41.99;93187.31;2071440;69;20168;-73
2022/09/22 08:33:56;;;;;;;3.25;2.40;;;;;;;15.00;42.15;93178.28;2071370;69;20140;-74
2022/09/22 08:36:24;;;;;;;3.03;2.38;;;;;;;15.63;41.89;93175.06;2071274;69;20528;-75
2022/09/22 08:38:50;;;;;;;5.05;2.10;;;;;;;15.83;41.17;93178.19;2071546;69;20183;-76
2022/09/22 08:41:37;;;;;;;2.67;1.80;;;;;;;15.33;40.68;93172.16;2071361;69;20255;-75
2022/09/22 08:44:06;;;;;;;4.15;2.33;;;;;;;16.08;39.90;93169.50;2071461;69;20331;-76
2022/09/22 08:46:34;;;;;;;7.20;2.28;;;;;;;16.70;39.62;93173.78;2071391;69;20144;-74
2022/09/22 08:52:43;;;;;;;3.10;1.80;;;;;;;17.17;39.12;93175.91;2071564;69;20152;-73
2022/09/22 08:55:35;;;;;;;3.70;1.80;;;;;;;18.12;37.02;93175.63;2071309;69;20294;-72
2022/09/22 08:58:23;;;;;;;4.13;1.83;;;;;;;17.92;36.40;93171.97;2067225;69;20140;-72
2022/09/22 09:01:17;;;;;;;3.03;1.88;;;;;;;18.59;36.03;93168.91;2066962;69;20259;-73
2022/09/22 09:04:22;;;;;;;9.23;1.90;;;;;;;19.77;34.48;93163.97;2071361;69;20156;-72
2022/09/22 09:07:06;;;;;;;3.88;1.92;;;;;;;20.16;33.59;93160.25;2071338;69;20140;-73
2022/09/22 09:09:41;;;;;;;3.95;1.98;;;;;;;19.31;33.54;93160.91;2071227;69;20147;-75
2022/09/22 09:12:42;;;;;;;3.55;2.05;;;;;;;19.55;35.52;93158.91;2071084;69;20243;-74
2022/09/22 09:15:15;;;;;;;6.25;2.60;;;;;;;20.35;33.76;93155.88;2071433;69;20144;-76
2022/09/22 09:17:45;;;;;;;3.67;2.05;;;;;;;20.20;35.17;93160.38;2071448;69;20198;-76
2022/09/22 09:20:25;;;;;;;4.95;2.10;;;;;;;19.03;33.14;93158.50;2070984;69;20144;-76
2022/09/22 09:22:56;;;;;;;5.43;2.10;;;;;;;18.96;33.98;93148.22;2071381;69;20148;-76
2022/09/22 09:25:37;;;;;;;2.65;1.70;;;;;;;20.35;34.08;93147.28;2067815;69;20148;-73
2022/09/22 09:28:06;;;;;;;2.97;1.50;;;;;;;20.64;31.51;93151.06;2071345;69;20143;-73
2022/09/22 09:30:42;;;;;;;2.92;1.52;;;;;;;20.81;32.00;93144.44;2071198;69;20176;-73
2022/09/22 09:33:32;;;;;;;2.08;1.27;;;;;;;21.42;32.08;93140.47;2071435;69;20171;-74
2022/09/22 09:35:58;;;;;;;2.05;1.33;;;;;;;20.85;30.24;93130.25;2067878;69;20235;-74
2022/09/22 09:38:30;;;;;;;4.95;1.40;;;;;;;20.65;30.22;93138.94;2071318;69;20137;-76
2022/09/22 09:41:07;;;;;;;1.85;1.45;;;;;;;20.48;29.74;93134.09;2071197;69;20144;-74
2022/09/22 09:43:32;;;;;;;1.83;1.50;;;;;;;21.09;29.39;93127.34;2071352;69;20196;-74
2022/09/22 09:46:16;;;;;;;2.50;1.55;;;;;;;21.07;30.74;93124.41;2067876;69;20180;-74
2022/09/22 09:48:58;;;;;;;2.35;1.40;;;;;;;20.61;29.80;93126.63;2071264;69;20160;-74
2022/09/22 09:51:24;;;;;;;2.55;1.40;;;;;;;19.91;30.63;93118.72;2071095;69;20243;-74
2022/09/22 09:53:54;;;;;;;3.03;1.92;;;;;;;20.75;31.25;93115.63;2071101;69;20222;-75
2022/09/22 09:56:27;;;;;;;2.38;1.70;;;;;;;20.41;29.93;93116.00;2071110;69;20253;-76
2022/09/22 10:01:43;;;;;;;6.82;1.70;;;;;;;23.02;29.61;93117.13;2071524;69;20182;-74
2022/09/22 10:04:25;;;;;;;2.55;1.45;;;;;;;21.11;28.75;93110.22;2072069;69;20152;-75
2022/09/22 10:06:51;;;;;;;2.50;1.40;;;;;;;22.28;28.32;93106.13;2071259;69;20190;-74
2022/09/22 10:09:28;;;;;;;4.40;1.67;;;;;;;22.81;29.08;93098.72;2071221;69;20148;-73
2022/09/22 10:12:01;;;;;;;2.70;1.70;;;;;;;23.73;29.08;93094.84;2071302;69;20139;-74
2022/09/22 10:14:30;;;;;;;4.00;1.90;;;;;;;22.49;27.24;93095.84;2071042;69;20195;-73
2022/09/22 10:16:56;;;;;;;6.00;1.70;;;;;;;22.48;28.02;93094.41;2071172;69;20148;-76
2022/09/22 10:19:30;;;;;;;7.18;1.58;;;;;;;23.17;27.81;93086.56;2071099;69;20164;-74
2022/09/22 10:22:28;;;;;;;4.25;1.35;;;;;;;22.75;27.77;93086.38;2071225;69;20608;-76
2022/09/22 10:25:00;;;;;;;2.80;1.60;;;;;;;22.33;28.73;93076.13;2053528;69;20169;-74
2022/09/22 10:27:28;;;;;;;6.80;1.40;;;;;;;23.22;28.31;93075.88;2053464;69;20157;-75
2022/09/22 10:30:21;;;;;;;3.45;1.30;;;;;;;24.71;27.21;93078.44;2053660;69;20194;-75
2022/09/22 10:33:09;;;;;;;2.45;1.50;;;;;;;25.65;26.33;93068.06;2053190;70;20605;-75
2022/09/22 10:35:35;;;;;;;2.72;1.40;;;;;;;24.05;26.34;93060.19;2053684;70;20647;-73
2022/09/22 10:38:06;;;;;;;4.07;1.55;;;;;;;24.80;24.75;93063.44;2053463;69;20225;-76
2022/09/22 10:40:34;;;;;;;3.27;1.40;;;;;;;24.91;25.07;93060.69;2053445;70;20162;-74
2022/09/22 10:43:03;;;;;;;2.20;1.48;;;;;;;26.21;24.41;93062.13;2053428;70;20266;-76
2022/09/22 10:46:05;;;;;;;3.35;1.60;;;;;;;26.90;24.82;93052.50;2053691;69;20279;-77
2022/09/22 10:48:47;;;;;;;2.47;1.40;;;;;;;28.28;23.16;93061.59;2053362;70;20241;-76
2022/09/22 10:51:28;;;;;;;4.27;1.40;;;;;;;27.96;22.77;93047.13;2053583;70;22080;-75
2022/09/22 10:54:05;;;;;;;2.42;1.23;;;;;;;29.67;21.16;93049.00;2053715;70;20567;-76
2022/09/22 10:56:42;;;;;;;2.72;1.20;;;;;;;29.43;20.61;93050.53;2053234;70;20194;-73
2022/09/22 10:59:21;;;;;;;3.67;1.33;;;;;;;31.69;19.65;93050.81;2053492;70;20154;-76
2022/09/22 11:02:12;;;;;;;3.55;1.50;;;;;;;31.94;19.19;93048.31;2071052;69;20164;-75
2022/09/22 11:04:50;;;;;;;4.25;1.40;;;;;;;33.65;18.54;93053.41;2070947;69;20163;-75
2022/09/22 11:13:44;;;;;;;3.35;1.10;;;;;;;34.33;16.09;93038.78;2071045;69;20564;-76
2022/09/22 11:16:24;;;;;;;3.40;1.42;;;;;;;30.31;18.40;93029.72;2071118;69;20168;-76
2022/09/22 11:19:12;;;;;;;2.55;0.90;;;;;;;34.96;16.81;93036.56;2071291;69;20328;-76
2022/09/22 11:21:40;;;;;;;2.92;1.30;;;;;;;35.61;15.73;93022.34;2071253;69;20179;-76
2022/09/22 11:24:15;;;;;;;4.70;1.50;;;;;;;37.18;15.08;93029.13;2070967;69;20148;-76
2022/09/22 11:26:53;;;;;;;5.28;1.10;;;;;;;36.08;13.98;93020.97;2070883;69;20179;-75
2022/09/22 11:29:44;;;;;;;4.95;1.38;;;;;;;36.71;14.64;93012.41;2071071;69;20227;-74
2022/09/22 11:32:28;;;;;;;2.92;1.40;;;;;;;37.34;14.36;93007.28;2070307;69;20191;-75
2022/09/22 11:35:15;;;;;;;3.38;1.35;;;;;;;39.29;14.20;93019.53;2070986;69;20574;-76
2022/09/22 11:37:49;;;;;;;4.40;1.65;;;;;;;39.60;13.70;93006.41;2071157;69;20152;-76
2022/09/22 11:40:20;;;;;;;4.10;1.40;;;;;;;39.83;13.78;93000.22;2071491;69;20136;-75
2022/09/22 11:43:25;;;;;;;2.55;1.23;;;;;;;39.54;14.01;93004.44;2071244;69;20500;-75
2022/09/22 11:46:11;;;;;;;6.75;2.72;;;;;;;38.24;14.07;93004.69;2071392;69;20240;-76
2022/09/22 11:48:54;;;;;;;5.00;1.40;;;;;;;38.88;13.40;93000.63;2071536;69;20144;-75
2022/09/22 11:51:29;;;;;;;6.68;1.63;;;;;;;37.19;13.51;92991.69;2071330;69;20214;-77
2022/09/22 11:54:01;;;;;;;4.70;1.58;;;;;;;39.29;14.06;92990.06;2071382;69;20139;-75
2022/09/22 11:56:32;;;;;;;3.15;1.15;;;;;;;39.77;13.79;92991.66;2070957;69;20140;-75
2022/09/22 11:59:03;;;;;;;4.18;1.33;;;;;;;39.92;12.85;92980.66;2071254;69;20525;-75
2022/09/22 12:01:33;;;;;;;;;;;;;;;40.45;12.90;92989.94;2068257;69;20144;-75
2022/09/22 12:04:16;;;;;;;3.47;1.30;;;;;;;41.11;12.71;92985.22;2071365;69;20361;-75
2022/09/22 12:06:48;;;;;;;8.65;1.35;;;;;;;40.79;12.17;92975.03;2067497;69;20149;-75
2022/09/22 12:09:22;;;;;;;4.90;1.50;;;;;;;40.44;12.76;92973.06;2069824;69;20235;-75
2022/09/22 12:11:50;;;;;;;4.80;1.50;;;;;;;39.30;13.06;92964.28;2071445;69;20243;-75
2022/09/22 12:14:16;;;;;;;5.50;1.30;;;;;;;39.52;14.05;92965.53;2071436;69;20144;-75